Time;durP1;ratioP1;P1;durP2;ratioP2;P2;SDS_P1;SDS_P2;PMS_P1;PMS_P2;Temp;Humidity;BMP_temperature;BMP_pressure;BME280_temperature;BME280_humidity;BME280_pressure;Samples;Min_cycle;Max_cycle;Signal;HPM_P1;HPM_P2
2022/10/08 00:01:20;;;;;;;7.20;1.40;;;;;;;;;;4974236;28;20525;-62
2022/10/08 00:03:47;;;;;;;7.25;1.92;;;;;;;;;;4974611;28;20051;-62
2022/10/08 00:06:14;;;;;;;;;;;;;;;;;;4974913;28;20055;-62
2022/10/08 00:08:42;;;;;;;6.10;1.38;;;;;;;;;;4974341;28;19932;-62
2022/10/08 00:11:10;;;;;;;7.28;1.85;;;;;;;;;;4974293;28;20051;-62
2022/10/08 00:13:40;;;;;;;4.63;1.15;;;;;;;;;;4973976;28;20506;-62
2022/10/08 00:16:07;;;;;;;4.55;1.30;;;;;;;;;;4974480;28;20064;-62
2022/10/08 00:18:34;;;;;;;6.20;1.70;;;;;;;;;;4974657;28;20134;-62
2022/10/08 00:21:10;;;;;;;8.57;2.05;;;;;;;;;;4973892;28;20139;-62
2022/10/08 00:23:36;;;;;;;6.43;1.70;;;;;;;;;;4973997;28;20058;-62
2022/10/08 00:26:06;;;;;;;8.23;1.83;;;;;;;;;;4973919;28;20051;-62
2022/10/08 00:28:33;;;;;;;6.05;1.90;;;;;;;;;;4974187;28;20130;-62
2022/10/08 00:31:10;;;;;;;3.35;1.90;;;;;;;;;;4974187;28;20097;-62
2022/10/08 00:33:37;;;;;;;6.72;1.80;;;;;;;;;;4974371;28;20058;-62
2022/10/08 00:36:04;;;;;;;5.07;1.20;;;;;;;;;;4974024;28;20047;-62
2022/10/08 00:38:31;;;;;;;5.28;1.63;;;;;;;;;;4973826;28;20513;-62
2022/10/08 00:40:58;;;;;;;6.30;1.73;;;;;;;;;;4973905;28;20065;-62
2022/10/08 00:43:45;;;;;;;4.72;1.08;;;;;;;;;;4973871;28;20054;-62
2022/10/08 00:46:17;;;;;;;9.35;1.10;;;;;;;;;;4973512;28;20503;-62
2022/10/08 00:48:43;;;;;;;6.35;1.15;;;;;;;;;;4973581;28;20051;-62
2022/10/08 00:51:10;;;;;;;4.85;1.33;;;;;;;;;;4973687;28;20051;-62
2022/10/08 00:53:36;;;;;;;7.63;1.50;;;;;;;;;;4973942;28;20046;-62
2022/10/08 00:56:03;;;;;;;9.57;1.40;;;;;;;;;;4970850;28;20056;-62
2022/10/08 00:58:29;;;;;;;8.43;1.38;;;;;;;;;;4959510;28;20051;-62
2022/10/08 01:00:56;;;;;;;7.57;1.63;;;;;;;;;;4973593;28;20054;-62
2022/10/08 01:03:23;;;;;;;4.80;1.20;;;;;;;;;;4972871;28;20059;-62
2022/10/08 01:06:01;;;;;;;6.63;1.33;;;;;;;;;;4973619;28;20287;-62
2022/10/08 01:08:40;;;;;;;7.68;1.40;;;;;;;;;;4973246;28;20410;-62
2022/10/08 01:11:15;;;;;;;4.95;1.30;;;;;;;;;;4973351;28;20046;-62
2022/10/08 01:14:02;;;;;;;6.72;1.45;;;;;;;;;;4972922;28;20085;-62
2022/10/08 01:16:34;;;;;;;6.43;1.15;;;;;;;;;;4943642;28;20055;-62
2022/10/08 01:19:01;;;;;;;8.57;1.50;;;;;;;;;;4973454;28;20047;-62
2022/10/08 01:21:59;;;;;;;4.85;1.30;;;;;;;;;;4972245;28;20047;-62
2022/10/08 01:27:28;;;;;;;9.07;2.35;;;;;;;;;;4973005;28;20491;-62
2022/10/08 01:29:55;;;;;;;5.28;1.60;;;;;;;;;;4973099;28;20061;-62
2022/10/08 01:32:25;;;;;;;7.60;1.37;;;;;;;;;;4972942;28;20057;-62
2022/10/08 01:34:56;;;;;;;7.47;1.77;;;;;;;;;;4972492;28;20415;-62
2022/10/08 01:37:25;;;;;;;5.78;1.48;;;;;;;;;;4973119;28;20062;-62
2022/10/08 01:39:53;;;;;;;5.03;1.77;;;;;;;;;;4973033;28;20055;-62
2022/10/08 01:42:22;;;;;;;7.18;1.30;;;;;;;;;;4973154;28;20070;-62
2022/10/08 01:44:50;;;;;;;7.60;1.48;;;;;;;;;;4972633;28;20517;-62
2022/10/08 01:47:19;;;;;;;5.55;1.30;;;;;;;;;;4972771;28;20043;-62
2022/10/08 01:49:54;;;;;;;8.55;1.30;;;;;;;;;;4972918;28;20066;-62
2022/10/08 01:52:24;;;;;;;6.32;1.33;;;;;;;;;;4973259;28;20057;-62
2022/10/08 01:54:52;;;;;;;5.18;1.30;;;;;;;;;;4972869;28;20057;-62
2022/10/08 01:57:20;;;;;;;5.65;1.23;;;;;;;;;;4972786;28;20058;-62
2022/10/08 02:00:06;;;;;;;11.40;2.03;;;;;;;;;;4972882;28;20061;-62
2022/10/08 02:02:33;;;;;;;5.70;1.60;;;;;;;;;;4972669;28;20055;-62
2022/10/08 02:04:59;;;;;;;4.95;1.30;;;;;;;;;;4972833;28;20043;-61
2022/10/08 02:07:27;;;;;;;5.45;1.30;;;;;;;;;;4972946;28;20055;-62
2022/10/08 02:10:14;;;;;;;7.07;1.50;;;;;;;;;;4972688;28;20441;-62
2022/10/08 02:12:41;;;;;;;5.97;1.50;;;;;;;;;;4972675;28;20085;-62
2022/10/08 02:15:11;;;;;;;6.47;1.45;;;;;;;;;;4972704;28;20051;-62
2022/10/08 02:18:05;;;;;;;5.65;1.73;;;;;;;;;;4972555;28;20407;-61
2022/10/08 02:20:34;;;;;;;6.13;1.70;;;;;;;;;;4972384;28;20050;-62
2022/10/08 02:23:04;;;;;;;3.67;1.63;;;;;;;;;;4972749;28;20051;-62
2022/10/08 02:25:40;;;;;;;6.07;1.50;;;;;;;;;;4972411;28;20050;-61
2022/10/08 02:28:25;;;;;;;2.83;1.48;;;;;;;;;;4972773;28;20062;-62
2022/10/08 02:30:57;;;;;;;5.28;1.73;;;;;;;;;;4972367;28;20050;-62
2022/10/08 02:33:39;;;;;;;5.05;2.08;;;;;;;;;;4972815;28;20055;-62
2022/10/08 02:36:07;;;;;;;8.45;2.10;;;;;;;;;;4972504;28;20042;-62
2022/10/08 02:38:33;;;;;;;;;;;;;;;;;;4972916;28;20047;-62
2022/10/08 02:41:01;;;;;;;7.90;1.98;;;;;;;;;;4972769;28;19922;-62
2022/10/08 02:43:30;;;;;;;8.88;1.75;;;;;;;;;;4972537;28;20050;-62
2022/10/08 02:46:06;;;;;;;6.00;1.40;;;;;;;;;;4974923;28;20051;-62
2022/10/08 02:48:33;;;;;;;8.88;1.70;;;;;;;;;;4975897;28;20047;-62
2022/10/08 02:51:07;;;;;;;5.93;1.60;;;;;;;;;;4975967;28;20047;-62
2022/10/08 02:53:35;;;;;;;5.15;1.50;;;;;;;;;;4975670;28;20047;-62
2022/10/08 02:56:04;;;;;;;5.97;1.23;;;;;;;;;;4975685;28;20419;-62
2022/10/08 02:58:31;;;;;;;5.55;1.13;;;;;;;;;;4975622;28;20496;-62
2022/10/08 03:01:00;;;;;;;4.13;1.00;;;;;;;;;;4975486;28;20055;-62
2022/10/08 03:03:32;;;;;;;4.93;1.10;;;;;;;;;;4975581;28;20486;-62
2022/10/08 03:06:01;;;;;;;7.55;1.02;;;;;;;;;;4975526;28;20054;-62
2022/10/08 03:08:28;;;;;;;5.68;1.08;;;;;;;;;;4975326;28;20057;-62
2022/10/08 03:10:54;;;;;;;7.72;1.17;;;;;;;;;;4975664;28;20053;-62
2022/10/08 03:13:22;;;;;;;4.13;0.73;;;;;;;;;;4975099;28;20062;-62
2022/10/08 03:15:52;;;;;;;5.40;1.40;;;;;;;;;;4975418;28;20063;-62
2022/10/08 03:18:19;;;;;;;4.40;1.02;;;;;;;;;;4975182;28;20057;-62
2022/10/08 03:20:48;;;;;;;6.72;1.00;;;;;;;;;;4975118;28;20047;-62
2022/10/08 03:23:15;;;;;;;6.40;0.93;;;;;;;;;;4975499;28;20061;-62
2022/10/08 03:25:41;;;;;;;6.10;1.13;;;;;;;;;;4975245;28;20047;-62
2022/10/08 03:28:08;;;;;;;3.15;0.82;;;;;;;;;;4975197;28;20055;-62
2022/10/08 03:30:34;;;;;;;6.55;1.27;;;;;;;;;;4975038;28;20495;-62
2022/10/08 03:33:01;;;;;;;6.32;1.40;;;;;;;;;;4975305;28;20425;-62
2022/10/08 03:35:27;;;;;;;2.70;1.10;;;;;;;;;;4974889;28;20517;-62
2022/10/08 03:37:54;;;;;;;3.53;0.60;;;;;;;;;;4974850;28;20419;-62
2022/10/08 03:40:20;;;;;;;3.95;1.20;;;;;;;;;;4973923;28;20486;-62
2022/10/08 03:42:46;;;;;;;3.33;0.80;;;;;;;;;;4975028;28;20058;-62
2022/10/08 03:45:14;;;;;;;3.90;0.95;;;;;;;;;;4974715;28;20055;-62
2022/10/08 03:47:40;;;;;;;4.45;1.15;;;;;;;;;;4974628;28;20057;-62
2022/10/08 03:50:07;;;;;;;4.35;1.05;;;;;;;;;;4974529;28;20047;-61
2022/10/08 03:52:33;;;;;;;5.30;0.95;;;;;;;;;;4974985;28;20066;-62
2022/10/08 03:55:00;;;;;;;6.43;1.05;;;;;;;;;;4974778;28;20050;-61
2022/10/08 03:57:26;;;;;;;4.28;0.90;;;;;;;;;;4974144;28;20077;-62
2022/10/08 03:59:53;;;;;;;6.38;1.33;;;;;;;;;;4974541;28;20059;-62
2022/10/08 04:02:19;;;;;;;4.13;1.00;;;;;;;;;;4974688;28;20047;-62
2022/10/08 04:04:45;;;;;;;5.28;0.93;;;;;;;;;;4974386;28;20055;-62
2022/10/08 04:07:12;;;;;;;2.05;0.88;;;;;;;;;;4974527;28;20039;-62
2022/10/08 04:09:38;;;;;;;4.15;1.02;;;;;;;;;;4974489;28;20062;-62
2022/10/08 04:12:04;;;;;;;3.83;1.20;;;;;;;;;;4974205;28;20059;-62
2022/10/08 04:14:31;;;;;;;7.55;1.17;;;;;;;;;;4974208;28;20498;-62
2022/10/08 04:16:57;;;;;;;4.75;1.15;;;;;;;;;;4974172;28;20062;-62
2022/10/08 04:19:23;;;;;;;4.18;1.48;;;;;;;;;;4974147;28;20054;-61
2022/10/08 04:21:50;;;;;;;8.00;2.03;;;;;;;;;;4974496;28;20052;-62
2022/10/08 04:24:16;;;;;;;5.38;1.77;;;;;;;;;;4974116;28;20050;-62
2022/10/08 04:26:42;;;;;;;6.47;2.10;;;;;;;;;;4973966;28;20051;-61
2022/10/08 04:29:11;;;;;;;4.70;1.65;;;;;;;;;;4974133;28;20057;-62
2022/10/08 04:31:38;;;;;;;6.35;1.65;;;;;;;;;;4974195;28;20105;-62
2022/10/08 04:34:05;;;;;;;3.50;1.60;;;;;;;;;;4974155;28;20059;-62
2022/10/08 04:36:31;;;;;;;5.97;1.55;;;;;;;;;;4973968;28;20057;-62
2022/10/08 04:38:57;;;;;;;4.25;1.52;;;;;;;;;;4973990;28;20050;-62
2022/10/08 04:41:25;;;;;;;3.33;1.38;;;;;;;;;;4973685;28;20047;-61
2022/10/08 04:43:52;;;;;;;4.43;1.45;;;;;;;;;;4973783;28;20055;-62
2022/10/08 04:46:19;;;;;;;3.67;1.17;;;;;;;;;;4973422;28;20570;-62
2022/10/08 04:48:48;;;;;;;4.25;1.17;;;;;;;;;;4973910;28;20069;-61
2022/10/08 04:51:14;;;;;;;7.03;1.40;;;;;;;;;;4973858;28;20065;-62
2022/10/08 04:53:41;;;;;;;5.70;1.20;;;;;;;;;;4973675;28;20058;-61
2022/10/08 04:56:09;;;;;;;5.57;1.23;;;;;;;;;;4973733;28;20058;-62
2022/10/08 04:58:35;;;;;;;3.67;1.13;;;;;;;;;;4973440;28;20423;-62
2022/10/08 05:01:03;;;;;;;5.65;1.08;;;;;;;;;;4973399;28;20541;-61
2022/10/08 05:03:29;;;;;;;6.93;1.73;;;;;;;;;;4973459;28;20055;-61
2022/10/08 05:05:55;;;;;;;7.47;2.05;;;;;;;;;;4973348;28;20061;-62
2022/10/08 05:08:22;;;;;;;5.18;1.50;;;;;;;;;;4973178;28;20055;-62
2022/10/08 05:10:48;;;;;;;11.00;1.60;;;;;;;;;;4973528;28;20050;-62
2022/10/08 05:13:15;;;;;;;8.45;1.63;;;;;;;;;;4973125;28;20054;-62
2022/10/08 05:15:41;;;;;;;5.53;1.52;;;;;;;;;;4973343;28;20050;-61
2022/10/08 05:18:07;;;;;;;7.50;1.67;;;;;;;;;;4973519;28;20069;-62
2022/10/08 05:20:37;;;;;;;5.80;1.88;;;;;;;;;;4973460;28;20051;-61
2022/10/08 05:23:03;;;;;;;6.93;2.00;;;;;;;;;;4973042;28;20388;-61
2022/10/08 05:25:30;;;;;;;6.53;1.83;;;;;;;;;;4972871;28;20605;-62
2022/10/08 05:27:57;;;;;;;10.18;2.83;;;;;;;;;;4973282;28;20065;-62
2022/10/08 05:30:23;;;;;;;5.93;1.70;;;;;;;;;;4973156;28;20051;-62
2022/10/08 05:32:50;;;;;;;6.78;1.90;;;;;;;;;;4973250;28;20051;-62
2022/10/08 05:35:16;;;;;;;4.40;1.58;;;;;;;;;;4973061;28;20059;-62
2022/10/08 05:37:43;;;;;;;4.82;1.90;;;;;;;;;;4972807;28;20510;-62
2022/10/08 05:40:09;;;;;;;5.28;1.70;;;;;;;;;;4972879;28;20058;-61
2022/10/08 05:42:36;;;;;;;8.50;1.83;;;;;;;;;;4973047;28;20056;-61
2022/10/08 05:45:02;;;;;;;8.63;1.70;;;;;;;;;;4973132;28;20057;-62
2022/10/08 05:47:29;;;;;;;3.55;1.40;;;;;;;;;;4972999;28;20047;-62
2022/10/08 05:49:55;;;;;;;7.90;1.73;;;;;;;;;;4973029;28;20047;-62
2022/10/08 05:52:21;;;;;;;7.03;1.60;;;;;;;;;;4972808;28;20058;-62
2022/10/08 05:54:48;;;;;;;5.35;1.45;;;;;;;;;;4972734;28;20058;-62
2022/10/08 05:57:14;;;;;;;4.18;1.27;;;;;;;;;;4972683;28;20509;-62
2022/10/08 05:59:40;;;;;;;8.02;1.55;;;;;;;;;;4973005;28;20055;-62
2022/10/08 06:02:08;;;;;;;3.72;1.25;;;;;;;;;;4972681;28;20054;-62
2022/10/08 06:04:34;;;;;;;3.93;1.60;;;;;;;;;;4972867;28;20051;-62
2022/10/08 06:07:00;;;;;;;7.53;3.20;;;;;;;;;;4972857;28;20296;-62
2022/10/08 06:09:27;;;;;;;10.93;4.53;;;;;;;;;;4972640;28;20058;-62
2022/10/08 06:11:53;;;;;;;10.32;4.80;;;;;;;;;;4972396;28;20050;-62
2022/10/08 06:14:19;;;;;;;9.18;3.38;;;;;;;;;;4972848;28;20410;-62
2022/10/08 06:16:46;;;;;;;4.93;2.78;;;;;;;;;;4972515;28;20050;-62
2022/10/08 06:19:12;;;;;;;5.22;2.33;;;;;;;;;;4972791;28;20423;-62
2022/10/08 06:21:39;;;;;;;9.35;2.63;;;;;;;;;;4976220;28;20516;-61
2022/10/08 06:24:06;;;;;;;6.20;2.17;;;;;;;;;;4976452;28;20054;-61
2022/10/08 06:26:35;;;;;;;7.03;2.17;;;;;;;;;;4976074;28;20091;-62
2022/10/08 06:29:04;;;;;;;5.60;1.63;;;;;;;;;;4974726;28;20042;-62
2022/10/08 06:31:31;;;;;;;5.57;1.88;;;;;;;;;;4975907;28;20053;-62
2022/10/08 06:33:58;;;;;;;6.57;1.92;;;;;;;;;;4974820;28;20138;-62
2022/10/08 06:36:25;;;;;;;11.57;2.83;;;;;;;;;;4975036;28;20054;-63
2022/10/08 06:38:53;;;;;;;12.43;2.97;;;;;;;;;;4974891;28;20051;-62
2022/10/08 06:41:20;;;;;;;8.85;2.53;;;;;;;;;;4975041;28;20047;-62
2022/10/08 06:43:47;;;;;;;5.15;1.90;;;;;;;;;;4974813;28;20058;-61
2022/10/08 06:46:14;;;;;;;10.88;2.63;;;;;;;;;;4975283;28;20051;-62
2022/10/08 06:48:40;;;;;;;13.07;3.05;;;;;;;;;;4975070;28;20439;-62
2022/10/08 06:51:13;;;;;;;9.45;2.13;;;;;;;;;;4974996;28;20077;-62
2022/10/08 06:53:40;;;;;;;8.27;2.35;;;;;;;;;;4975049;28;20051;-62
2022/10/08 06:56:09;;;;;;;8.90;2.25;;;;;;;;;;4974992;28;20050;-62
2022/10/08 06:58:36;;;;;;;9.13;2.85;;;;;;;;;;4975155;28;20046;-62
2022/10/08 07:01:04;;;;;;;7.65;2.28;;;;;;;;;;4974351;28;20592;-62
2022/10/08 07:03:31;;;;;;;7.50;2.58;;;;;;;;;;4974623;28;20137;-62
2022/10/08 07:06:01;;;;;;;11.80;2.20;;;;;;;;;;4974416;28;20054;-62
2022/10/08 07:08:28;;;;;;;7.95;2.17;;;;;;;;;;4974485;28;20058;-62
2022/10/08 07:10:54;;;;;;;7.30;2.38;;;;;;;;;;4971885;28;20051;-62
2022/10/08 07:13:21;;;;;;;11.00;3.40;;;;;;;;;;4974260;28;20077;-62
2022/10/08 07:15:47;;;;;;;9.63;2.72;;;;;;;;;;4972534;28;20061;-62
2022/10/08 07:18:14;;;;;;;11.70;3.10;;;;;;;;;;4974883;28;20050;-62
2022/10/08 07:20:41;;;;;;;;;;;;;;;;;;4974915;28;20054;-62
2022/10/08 07:23:08;;;;;;;11.95;2.63;;;;;;;;;;4974414;28;19930;-62
2022/10/08 07:25:34;;;;;;;9.93;2.67;;;;;;;;;;4974473;28;20054;-62
2022/10/08 07:28:00;;;;;;;7.82;2.53;;;;;;;;;;4971802;28;20051;-62
2022/10/08 07:30:27;;;;;;;10.52;2.75;;;;;;;;;;4974365;28;20575;-62
2022/10/08 07:32:53;;;;;;;8.63;2.75;;;;;;;;;;4973127;28;20050;-63
2022/10/08 07:35:20;;;;;;;8.93;2.70;;;;;;;;;;4973706;28;20050;-63
2022/10/08 07:37:46;;;;;;;10.27;2.85;;;;;;;;;;4973881;28;20070;-62
2022/10/08 07:40:12;;;;;;;8.57;2.70;;;;;;;;;;4974026;28;20050;-62
2022/10/08 07:42:39;;;;;;;9.93;2.45;;;;;;;;;;4974186;28;20054;-62
2022/10/08 07:45:05;;;;;;;9.77;2.47;;;;;;;;;;4973067;28;20059;-63
2022/10/08 07:47:32;;;;;;;7.53;1.85;;;;;;;;;;4972596;28;20054;-63
2022/10/08 07:49:58;;;;;;;6.28;1.67;;;;;;;;;;4974125;28;20051;-63
2022/10/08 07:52:24;;;;;;;7.03;1.60;;;;;;;;;;4971071;28;20607;-63
2022/10/08 07:54:51;;;;;;;9.35;2.28;;;;;;;;;;4973989;28;20043;-62
2022/10/08 07:57:17;;;;;;;13.25;2.67;;;;;;;;;;4971380;28;20062;-63
2022/10/08 07:59:44;;;;;;;8.20;2.28;;;;;;;;;;4969893;28;20051;-62
2022/10/08 08:02:10;;;;;;;7.90;1.83;;;;;;;;;;4964197;28;20487;-63
2022/10/08 08:04:36;;;;;;;6.53;1.58;;;;;;;;;;4973540;28;20090;-63
2022/10/08 08:07:03;;;;;;;5.45;1.40;;;;;;;;;;4973269;28;20051;-64
2022/10/08 08:09:29;;;;;;;7.13;1.58;;;;;;;;;;4973662;28;20049;-64
2022/10/08 08:11:56;;;;;;;5.38;1.33;;;;;;;;;;4973187;28;20504;-63
2022/10/08 08:14:22;;;;;;;7.00;1.70;;;;;;;;;;4971700;28;20050;-64
2022/10/08 08:16:48;;;;;;;7.50;1.83;;;;;;;;;;4973570;28;20058;-68
2022/10/08 08:19:15;;;;;;;5.00;1.55;;;;;;;;;;4973544;28;20054;-66
2022/10/08 08:21:41;;;;;;;8.65;1.85;;;;;;;;;;4972927;28;20059;-66
2022/10/08 08:24:11;;;;;;;6.75;1.63;;;;;;;;;;4973318;28;20055;-67
2022/10/08 08:26:39;;;;;;;5.90;1.67;;;;;;;;;;4973014;28;20074;-67
2022/10/08 08:29:10;;;;;;;7.45;1.83;;;;;;;;;;4973185;28;20059;-67
2022/10/08 08:31:38;;;;;;;9.65;2.47;;;;;;;;;;4970340;28;20065;-66
2022/10/08 08:34:06;;;;;;;7.22;1.70;;;;;;;;;;4972630;28;20043;-66
2022/10/08 08:36:34;;;;;;;8.88;2.00;;;;;;;;;;4972486;28;20053;-66
2022/10/08 08:39:01;;;;;;;6.38;2.00;;;;;;;;;;4972470;28;20454;-66
2022/10/08 08:41:28;;;;;;;;;;;;;;;;;;4973231;28;20064;-66
2022/10/08 08:43:58;;;;;;;7.30;1.70;;;;;;;;;;4972101;28;19922;-66
2022/10/08 08:46:26;;;;;;;8.55;1.52;;;;;;;;;;4972384;28;20057;-65
2022/10/08 08:48:54;;;;;;;9.30;1.77;;;;;;;;;;4970721;28;20043;-65
2022/10/08 08:51:21;;;;;;;8.65;1.65;;;;;;;;;;4972671;28;20062;-65
2022/10/08 08:53:47;;;;;;;8.13;1.40;;;;;;;;;;4968770;28;20050;-65
2022/10/08 08:56:15;;;;;;;5.90;1.37;;;;;;;;;;4973102;28;20307;-65
2022/10/08 08:58:48;;;;;;;7.28;1.42;;;;;;;;;;4972992;28;20707;-65
2022/10/08 09:01:21;;;;;;;4.05;1.20;;;;;;;;;;4973150;28;20065;-64
2022/10/08 09:03:49;;;;;;;8.50;1.65;;;;;;;;;;4972752;28;20594;-64
2022/10/08 09:06:18;;;;;;;8.10;1.55;;;;;;;;;;4972687;28;20419;-64
2022/10/08 09:08:45;;;;;;;12.25;2.33;;;;;;;;;;4972895;28;20047;-64
2022/10/08 09:11:12;;;;;;;6.68;1.52;;;;;;;;;;4973022;28;20042;-64
2022/10/08 09:14:17;;;;;;;4.63;1.35;;;;;;;;;;4972668;28;20054;-64
2022/10/08 09:16:44;;;;;;;9.77;2.13;;;;;;;;;;4931841;29;20059;-65
2022/10/08 09:19:11;;;;;;;5.38;1.35;;;;;;;;;;4931515;29;20051;-64
2022/10/08 09:21:37;;;;;;;11.13;7.90;;;;;;;;;;4945262;28;20055;-65
2022/10/08 09:24:03;;;;;;;7.38;3.60;;;;;;;;;;4972613;28;20507;-65
2022/10/08 09:26:32;;;;;;;7.10;3.00;;;;;;;;;;4970426;28;20054;-64
2022/10/08 09:28:59;;;;;;;7.45;4.97;;;;;;;;;;4972725;28;20055;-64
2022/10/08 09:31:28;;;;;;;8.43;7.32;;;;;;;;;;4972723;28;20069;-65
2022/10/08 09:33:57;;;;;;;6.65;2.05;;;;;;;;;;4972698;28;20053;-66
2022/10/08 09:36:27;;;;;;;6.07;1.27;;;;;;;;;;4972651;28;20054;-66
2022/10/08 09:38:57;;;;;;;7.13;2.03;;;;;;;;;;4972408;28;20055;-65
2022/10/08 09:41:27;;;;;;;4.72;1.55;;;;;;;;;;4972579;28;20146;-65
2022/10/08 09:44:08;;;;;;;5.45;1.98;;;;;;;;;;4972314;28;20047;-65
2022/10/08 09:46:35;;;;;;;4.90;1.27;;;;;;;;;;4957643;28;20050;-65
2022/10/08 09:49:20;;;;;;;5.45;1.20;;;;;;;;;;4972528;28;20051;-65
2022/10/08 09:51:47;;;;;;;6.53;1.60;;;;;;;;;;4972574;28;20059;-65
2022/10/08 09:54:16;;;;;;;5.25;1.40;;;;;;;;;;4972575;28;20065;-65
2022/10/08 09:56:51;;;;;;;5.22;1.55;;;;;;;;;;4976107;28;20055;-65
2022/10/08 09:59:19;;;;;;;6.47;1.60;;;;;;;;;;4976476;28;20411;-66
2022/10/08 10:01:46;;;;;;;5.43;1.17;;;;;;;;;;4976301;28;20046;-65
2022/10/08 10:04:34;;;;;;;4.63;1.10;;;;;;;;;;4976329;28;20151;-66
2022/10/08 10:07:01;;;;;;;4.18;1.33;;;;;;;;;;4975892;28;20046;-66
2022/10/08 10:09:27;;;;;;;;;;;;;;;;;;4976281;28;20039;-65
2022/10/08 10:12:00;;;;;;;4.00;1.40;;;;;;;;;;4975740;28;19922;-65
2022/10/08 10:14:32;;;;;;;6.18;1.00;;;;;;;;;;4976168;28;20046;-64
2022/10/08 10:17:00;;;;;;;6.00;1.30;;;;;;;;;;4975696;28;20063;-65
2022/10/08 10:19:34;;;;;;;3.45;1.05;;;;;;;;;;4975851;28;20392;-64
2022/10/08 10:22:08;;;;;;;4.40;1.27;;;;;;;;;;4968217;28;20047;-63
2022/10/08 10:24:37;;;;;;;4.47;1.08;;;;;;;;;;4974315;28;20051;-63
2022/10/08 10:27:09;;;;;;;3.33;0.90;;;;;;;;;;4972694;28;20043;-63
2022/10/08 10:29:52;;;;;;;4.82;1.15;;;;;;;;;;4975402;28;20398;-64
2022/10/08 10:32:25;;;;;;;3.80;0.95;;;;;;;;;;4975483;28;20506;-64
2022/10/08 10:35:10;;;;;;;4.22;1.00;;;;;;;;;;4975497;28;20051;-63
2022/10/08 10:37:43;;;;;;;4.18;1.02;;;;;;;;;;4975819;28;20062;-64
2022/10/08 10:40:16;;;;;;;5.30;1.17;;;;;;;;;;4963017;28;20134;-64
2022/10/08 10:42:47;;;;;;;3.03;1.00;;;;;;;;;;4975648;28;20050;-63
2022/10/08 10:45:20;;;;;;;3.65;0.90;;;;;;;;;;4975339;28;20054;-63
2022/10/08 10:47:47;;;;;;;3.22;1.05;;;;;;;;;;4975487;28;20055;-63
2022/10/08 10:50:15;;;;;;;4.57;0.98;;;;;;;;;;4961993;28;20053;-63
2022/10/08 10:52:41;;;;;;;2.83;0.68;;;;;;;;;;4975674;28;20072;-63
2022/10/08 10:55:10;;;;;;;3.03;0.77;;;;;;;;;;4975198;28;20135;-63
2022/10/08 10:57:48;;;;;;;4.45;0.73;;;;;;;;;;4975188;28;20055;-63
2022/10/08 11:00:29;;;;;;;3.00;0.98;;;;;;;;;;4975018;28;20051;-64
2022/10/08 11:03:10;;;;;;;3.00;0.80;;;;;;;;;;4975332;28;20059;-63
2022/10/08 11:05:38;;;;;;;2.40;0.70;;;;;;;;;;4975098;28;20059;-63
2022/10/08 11:08:05;;;;;;;2.10;0.70;;;;;;;;;;4974888;28;20046;-64
2022/10/08 11:10:34;;;;;;;3.17;0.73;;;;;;;;;;4974858;28;20506;-63
2022/10/08 11:13:13;;;;;;;3.38;0.88;;;;;;;;;;4974841;28;20062;-63
2022/10/08 11:15:42;;;;;;;2.08;0.80;;;;;;;;;;4974674;28;20566;-63
2022/10/08 11:18:08;;;;;;;2.13;0.65;;;;;;;;;;4975096;28;20055;-63
2022/10/08 11:20:47;;;;;;;2.25;0.98;;;;;;;;;;4974877;28;20051;-63
2022/10/08 11:23:13;;;;;;;4.65;0.85;;;;;;;;;;4974877;28;20089;-64
2022/10/08 11:25:54;;;;;;;2.00;0.70;;;;;;;;;;4972729;28;20062;-64
2022/10/08 11:28:56;;;;;;;4.10;0.77;;;;;;;;;;4974867;28;20062;-63
2022/10/08 11:31:37;;;;;;;3.05;0.70;;;;;;;;;;4974642;28;20062;-63
2022/10/08 11:34:04;;;;;;;5.03;1.08;;;;;;;;;;4974676;28;20050;-63
2022/10/08 11:36:42;;;;;;;2.75;0.80;;;;;;;;;;4974374;28;20483;-63
2022/10/08 11:39:27;;;;;;;4.03;0.75;;;;;;;;;;4974061;28;20498;-63
2022/10/08 11:41:59;;;;;;;2.50;0.70;;;;;;;;;;4970256;28;20047;-63
2022/10/08 11:44:25;;;;;;;2.95;0.50;;;;;;;;;;4973586;28;20078;-63
2022/10/08 11:46:52;;;;;;;4.00;0.93;;;;;;;;;;4973392;28;20051;-63
2022/10/08 11:49:18;;;;;;;3.72;1.17;;;;;;;;;;4974910;28;20046;-63
2022/10/08 11:51:45;;;;;;;3.45;0.95;;;;;;;;;;4974852;28;20054;-63
2022/10/08 11:54:11;;;;;;;;;;;;;;;;;;4974695;28;20061;-62
2022/10/08 11:56:42;;;;;;;4.75;1.30;;;;;;;;;;4974648;28;19930;-62
2022/10/08 11:59:29;;;;;;;3.92;0.93;;;;;;;;;;4974634;28;20054;-62
2022/10/08 12:02:00;;;;;;;4.00;1.10;;;;;;;;;;4974045;28;20418;-62
2022/10/08 12:04:28;;;;;;;4.13;0.95;;;;;;;;;;4974889;28;20094;-63
2022/10/08 12:07:06;;;;;;;4.32;1.50;;;;;;;;;;4974597;28;20066;-64
2022/10/08 12:09:51;;;;;;;3.95;1.35;;;;;;;;;;4974453;28;20070;-63
2022/10/08 12:12:17;;;;;;;5.78;1.38;;;;;;;;;;4974045;28;20414;-63
2022/10/08 12:14:44;;;;;;;7.45;3.70;;;;;;;;;;4973542;28;20399;-63
2022/10/08 12:17:11;;;;;;;5.18;3.15;;;;;;;;;;4972176;28;20418;-63
2022/10/08 12:19:37;;;;;;;4.28;2.10;;;;;;;;;;4973980;28;20055;-63
2022/10/08 12:22:16;;;;;;;4.50;1.15;;;;;;;;;;4957281;28;20051;-63
2022/10/08 12:24:43;;;;;;;3.55;1.10;;;;;;;;;;4954084;28;20094;-63
2022/10/08 12:27:15;;;;;;;5.57;1.20;;;;;;;;;;4956049;28;20439;-63
2022/10/08 12:29:55;;;;;;;4.28;1.08;;;;;;;;;;4970806;28;20495;-64
2022/10/08 12:32:31;;;;;;;6.03;4.07;;;;;;;;;;4963166;28;20043;-64
2022/10/08 12:34:58;;;;;;;4.22;1.55;;;;;;;;;;4973034;28;20054;-63
2022/10/08 12:37:47;;;;;;;2.90;1.15;;;;;;;;;;4972622;28;20073;-63
2022/10/08 12:40:18;;;;;;;3.08;1.20;;;;;;;;;;4973770;28;20050;-63
2022/10/08 12:42:46;;;;;;;4.30;1.38;;;;;;;;;;4973624;28;20057;-63
2022/10/08 12:45:28;;;;;;;4.85;1.80;;;;;;;;;;4973701;28;20047;-63
2022/10/08 12:47:57;;;;;;;14.25;2.20;;;;;;;;;;4973601;28;20058;-63
2022/10/08 12:50:30;;;;;;;6.40;1.63;;;;;;;;;;4973821;28;20046;-63
2022/10/08 12:53:00;;;;;;;4.50;1.50;;;;;;;;;;4973518;28;20047;-63
2022/10/08 12:55:28;;;;;;;5.18;1.50;;;;;;;;;;4973826;28;20051;-63
2022/10/08 12:57:54;;;;;;;5.50;1.20;;;;;;;;;;4973396;28;20069;-63
2022/10/08 13:00:27;;;;;;;3.13;0.90;;;;;;;;;;4972171;28;20051;-63
2022/10/08 13:03:01;;;;;;;2.58;1.10;;;;;;;;;;4972571;28;20128;-64
2022/10/08 13:05:27;;;;;;;4.30;1.73;;;;;;;;;;4972006;28;20058;-63
2022/10/08 13:07:54;;;;;;;4.15;1.25;;;;;;;;;;4972552;28;20071;-63
2022/10/08 13:10:22;;;;;;;4.63;1.48;;;;;;;;;;4973375;28;20051;-64
2022/10/08 13:12:58;;;;;;;2.65;0.90;;;;;;;;;;4972857;28;20061;-64
2022/10/08 13:15:25;;;;;;;3.67;0.93;;;;;;;;;;4973312;28;20047;-63
2022/10/08 13:17:52;;;;;;;3.72;1.35;;;;;;;;;;4973103;28;20050;-63
2022/10/08 13:20:20;;;;;;;4.13;1.25;;;;;;;;;;4972713;28;20046;-64
2022/10/08 13:22:46;;;;;;;3.30;1.08;;;;;;;;;;4972530;28;20054;-64
2022/10/08 13:25:31;;;;;;;3.40;0.80;;;;;;;;;;4972905;28;20050;-64
2022/10/08 13:28:09;;;;;;;5.33;0.90;;;;;;;;;;4972557;28;20487;-64
2022/10/08 13:30:35;;;;;;;4.80;1.10;;;;;;;;;;4971918;28;20505;-64
2022/10/08 13:33:01;;;;;;;;;;;;;;;;;;4973655;28;20065;-64
2022/10/08 13:35:28;;;;;;;4.05;0.90;;;;;;;;;;4973061;28;20393;-64
2022/10/08 13:37:54;;;;;;;;;;;;;;;;;;4973483;28;20073;-63
2022/10/08 13:40:22;;;;;;;5.03;1.10;;;;;;;;;;4972481;28;19930;-64
2022/10/08 13:42:50;;;;;;;2.83;0.90;;;;;;;;;;4970987;28;20513;-64
2022/10/08 13:45:29;;;;;;;3.40;1.20;;;;;;;;;;4972487;28;20054;-64
2022/10/08 13:47:55;;;;;;;2.63;0.98;;;;;;;;;;4972953;28;20054;-64
2022/10/08 13:50:21;;;;;;;;;;;;;;;;;;4973511;28;20399;-64
2022/10/08 13:52:52;;;;;;;3.92;1.10;;;;;;;;;;4972801;28;20033;-64
2022/10/08 13:55:26;;;;;;;3.10;0.98;;;;;;;;;;4972908;28;20043;-64
2022/10/08 13:57:53;;;;;;;3.22;1.00;;;;;;;;;;4972769;28;20105;-64
2022/10/08 14:00:20;;;;;;;3.65;1.20;;;;;;;;;;4972526;28;20495;-64
2022/10/08 14:02:46;;;;;;;4.20;1.05;;;;;;;;;;4972969;28;20051;-64
2022/10/08 14:05:13;;;;;;;4.13;0.90;;;;;;;;;;4973019;28;20066;-63
2022/10/08 14:07:39;;;;;;;;;;;;;;;;;;4973241;28;20056;-64
2022/10/08 14:10:06;;;;;;;2.72;0.82;;;;;;;;;;4972701;28;19929;-65
2022/10/08 14:12:33;;;;;;;4.55;1.40;;;;;;;;;;4972359;28;20475;-64
2022/10/08 14:14:59;;;;;;;3.22;1.20;;;;;;;;;;4972800;28;20058;-64
2022/10/08 14:17:26;;;;;;;;;;;;;;;;;;4972894;28;20055;-63
2022/10/08 14:19:54;;;;;;;3.10;1.00;;;;;;;;;;4972021;28;20301;-64
2022/10/08 14:22:20;;;;;;;1.25;0.57;;;;;;;;;;4972801;28;20165;-63
2022/10/08 14:24:46;;;;;;;2.03;0.57;;;;;;;;;;4972230;28;20073;-63
2022/10/08 14:27:13;;;;;;;1.85;0.43;;;;;;;;;;4972608;28;20057;-64
2022/10/08 14:29:39;;;;;;;1.98;0.50;;;;;;;;;;4969844;28;20050;-63
2022/10/08 14:32:08;;;;;;;2.88;0.65;;;;;;;;;;4972164;28;20058;-63
2022/10/08 14:34:35;;;;;;;1.38;0.32;;;;;;;;;;4972607;28;20043;-64
2022/10/08 14:37:01;;;;;;;2.03;0.70;;;;;;;;;;4972297;28;20058;-63
2022/10/08 14:39:28;;;;;;;2.33;0.68;;;;;;;;;;4972466;28;20045;-64
2022/10/08 14:41:54;;;;;;;2.45;0.50;;;;;;;;;;4975123;28;20050;-64
2022/10/08 14:44:21;;;;;;;3.60;1.00;;;;;;;;;;4975907;28;20054;-63
2022/10/08 14:46:48;;;;;;;1.20;0.60;;;;;;;;;;4976133;28;20137;-64
2022/10/08 14:49:14;;;;;;;2.38;0.70;;;;;;;;;;4976258;28;20395;-64
2022/10/08 14:51:40;;;;;;;2.97;0.60;;;;;;;;;;4975905;28;20062;-64
2022/10/08 14:54:10;;;;;;;3.38;0.90;;;;;;;;;;4975397;28;20042;-63
2022/10/08 14:56:37;;;;;;;1.95;0.70;;;;;;;;;;4975607;28;20054;-64
2022/10/08 14:59:03;;;;;;;4.53;1.35;;;;;;;;;;4975783;28;20059;-64
2022/10/08 15:01:30;;;;;;;2.83;0.85;;;;;;;;;;4975435;28;20059;-65